Map

Track Data

SID SEASON NUMBER BASIN SUBBASIN NAME ISO_TIME NATURE LAT LON WMO_WIND WMO_PRES WMO_AGENCY TRACK_TYPE DIST2LAND LANDFALL IFLAG USA_AGENCY USA_ATCF_ID USA_LAT USA_LON USA_RECORD USA_STATUS USA_WIND USA_PRES USA_SSHS USA_R34_NE USA_R34_SE USA_R34_SW USA_R34_NW USA_R50_NE USA_R50_SE USA_R50_SW USA_R50_NW USA_R64_NE USA_R64_SE USA_R64_SW USA_R64_NW USA_POCI USA_ROCI USA_RMW USA_EYE TOKYO_LAT TOKYO_LON TOKYO_GRADE TOKYO_WIND TOKYO_PRES TOKYO_R50_DIR TOKYO_R50_LONG TOKYO_R50_SHORT TOKYO_R30_DIR TOKYO_R30_LONG TOKYO_R30_SHORT TOKYO_LAND CMA_LAT CMA_LON CMA_CAT CMA_WIND CMA_PRES HKO_LAT HKO_LON HKO_CAT HKO_WIND HKO_PRES NEWDELHI_LAT NEWDELHI_LON NEWDELHI_GRADE NEWDELHI_WIND NEWDELHI_PRES NEWDELHI_CI NEWDELHI_DP NEWDELHI_POCI REUNION_LAT REUNION_LON REUNION_TYPE REUNION_WIND REUNION_PRES REUNION_TNUM REUNION_CI REUNION_RMW REUNION_R34_NE REUNION_R34_SE REUNION_R34_SW REUNION_R34_NW REUNION_R50_NE REUNION_R50_SE REUNION_R50_SW REUNION_R50_NW REUNION_R64_NE REUNION_R64_SE REUNION_R64_SW REUNION_R64_NW BOM_LAT BOM_LON BOM_TYPE BOM_WIND BOM_PRES BOM_TNUM BOM_CI BOM_RMW BOM_R34_NE BOM_R34_SE BOM_R34_SW BOM_R34_NW BOM_R50_NE BOM_R50_SE BOM_R50_SW BOM_R50_NW BOM_R64_NE BOM_R64_SE BOM_R64_SW BOM_R64_NW BOM_ROCI BOM_POCI BOM_EYE BOM_POS_METHOD BOM_PRES_METHOD NADI_LAT NADI_LON NADI_CAT NADI_WIND NADI_PRES WELLINGTON_LAT WELLINGTON_LON WELLINGTON_WIND WELLINGTON_PRES DS824_LAT DS824_LON DS824_STAGE DS824_WIND DS824_PRES TD9636_LAT TD9636_LON TD9636_STAGE TD9636_WIND TD9636_PRES TD9635_LAT TD9635_LON TD9635_WIND TD9635_PRES TD9635_ROCI NEUMANN_LAT NEUMANN_LON NEUMANN_CLASS NEUMANN_WIND NEUMANN_PRES MLC_LAT MLC_LON MLC_CLASS MLC_WIND MLC_PRES USA_GUST BOM_GUST BOM_GUST_PER REUNION_GUST REUNION_GUST_PER USA_SEAHGT USA_SEARAD_NE USA_SEARAD_SE USA_SEARAD_SW USA_SEARAD_NW STORM_SPEED STORM_DIR
1991233N22147 1991 53 WP MM NOT_NAMED 1991-08-21 06:00:00 NR 22.4000 147.100 main 1560 1546 O_____________ jtwc_wp WP151991 22.4000 147.100 20 -1 3 332
1991233N22147 1991 53 WP MM NOT_NAMED 1991-08-21 09:00:00 NR 22.5525 147.010 main 1536 1521 P_____________ WP151991 22.5525 147.010 20 -1 4 329
1991233N22147 1991 53 WP MM NOT_NAMED 1991-08-21 12:00:00 NR 22.7000 146.900 main 1521 1507 O_____________ jtwc_wp WP151991 22.7000 146.900 20 -1 4 321
1991233N22147 1991 53 WP MM NOT_NAMED 1991-08-21 15:00:00 NR 22.8425 146.757 main 1507 1478 P_____________ WP151991 22.8425 146.757 20 -1 4 317
1991233N22147 1991 53 WP MM NOT_NAMED 1991-08-21 18:00:00 NR 23.0000 146.600 main 1478 1453 O_____________ jtwc_wp WP151991 23.0000 146.600 20 -1 5 322
1991233N22147 1991 53 WP MM NOT_NAMED 1991-08-21 21:00:00 NR 23.2000 146.450 main 1453 1424 P_____________ WP151991 23.2000 146.450 20 -1 5 325
1991233N22147 1991 53 WP MM NOT_NAMED 1991-08-22 00:00:00 NR 23.4000 146.300 main 1424 1410 O_____________ jtwc_wp WP151991 23.4000 146.300 20 -1 5 322
1991233N22147 1991 53 WP MM NOT_NAMED 1991-08-22 03:00:00 NR 23.5575 146.150 main 1396 1381 P_____________ WP151991 23.5575 146.150 20 -1 4 318
1991233N22147 1991 53 WP MM NOT_NAMED 1991-08-22 06:00:00 NR 23.7000 146.000 main 1381 1367 O_____________ jtwc_wp WP151991 23.7000 146.000 20 -1 4 317
1991233N22147 1991 53 WP MM NOT_NAMED 1991-08-22 09:00:00 NR 23.8500 145.850 main 1363 1338 P_____________ WP151991 23.8500 145.850 20 -1 4 318
1991233N22147 1991 53 WP MM NOT_NAMED 1991-08-22 12:00:00 NR 24.0000 145.700 main 1338 1324 O_____________ jtwc_wp WP151991 24.0000 145.700 20 -1 4 318
1991233N22147 1991 53 WP MM NOT_NAMED 1991-08-22 15:00:00 NR 24.1575 145.543 main 1310 1296 P_____________ WP151991 24.1575 145.543 20 -1 4 318
1991233N22147 1991 53 WP MM NOT_NAMED 1991-08-22 18:00:00 NR 24.3000 145.400 main 1296 1281 O_____________ jtwc_wp WP151991 24.3000 145.400 20 -1 3 319
1991233N22147 1991 53 WP MM NOT_NAMED 1991-08-22 21:00:00 NR 24.4075 145.300 main 1281 1267 P_____________ WP151991 24.4075 145.300 20 -1 3 318
1991233N22147 1991 53 WP MM NOT_NAMED 1991-08-23 00:00:00 NR 24.5000 145.200 main 1267 1253 O_____________ jtwc_wp WP151991 24.5000 145.200 20 -1 3 311
1991233N22147 1991 53 WP MM NOT_NAMED 1991-08-23 03:00:00 NR 24.6000 145.057 main 1253 1235 P_____________ WP151991 24.6000 145.057 20 -1 3 306
1991233N22147 1991 53 WP MM NOT_NAMED 1991-08-23 06:00:00 NR 24.7000 144.900 main 1235 1221 O_____________ jtwc_wp WP151991 24.7000 144.900 20 -1 3 306
1991233N22147 1991 53 WP MM NOT_NAMED 1991-08-23 09:00:00 NR 24.8000 144.757 main 1221 1173 P_____________ WP151991 24.8000 144.757 20 -1 7 0
1991233N22147 1991 53 WP MM NOT_NAMED 1991-08-23 12:00:00 TS 25.3800 144.880 main 1163 1128 O_O___________ jtwc_wp WP151991 24.9000 144.600 20 -1 27.3000 146.000 1 23 996 9 3
1991233N22147 1991 53 WP MM NOT_NAMED 1991-08-23 15:00:00 TS 25.7193 144.802 main 1128 1100 P_P___________ WP151991 25.0000 144.407 20 -1 27.1578 145.590 1 23 996 6 337
1991233N22147 1991 53 WP MM NOT_NAMED 1991-08-23 18:00:00 TS 25.9143 144.629 main 1100 1082 O_O___________ jtwc_wp WP151991 25.1000 144.200 20 -1 27.0000 145.200 1 23 996 4 311
1991233N22147 1991 53 WP MM NOT_NAMED 1991-08-23 21:00:00 TS 26.0136 144.425 main 1082 1074 P_P___________ WP151991 25.1999 144.007 20 -1 26.8274 144.842 1 26 995 4 281
1991233N22147 1991 53 WP MM NOT_NAMED 1991-08-24 00:00:00 TS 26.0000 144.150 main 1074 1064 O_O___________ jtwc_wp WP151991 25.3000 143.800 20 -1 26.7000 144.500 1 29 995 5 272
1991233N22147 1991 53 WP MM NOT_NAMED 1991-08-24 03:00:00 TS 26.0312 143.854 main 1064 1043 P_P___________ WP151991 25.4000 143.565 20 -1 26.6625 144.143 1 29 995 5 281
1991233N22147 1991 53 WP MM NOT_NAMED 1991-08-24 06:00:00 TS 26.1000 143.550 main 1043 1023 O_O___________ jtwc_wp WP151991 25.5000 143.300 20 -1 26.7000 143.800 1 29 995 5 288
1991233N22147 1991 53 WP MM NOT_NAMED 1991-08-24 09:00:00 TS 26.1960 143.272 main 1023 1004 P_P___________ WP151991 25.5999 143.022 20 -1 26.7922 143.523 1 29 995 6 290
1991233N22147 1991 53 WP MM NOT_NAMED 1991-08-24 12:00:00 TS 26.3000 142.950 main 1004 982 O_O___________ jtwc_wp WP151991 25.7000 142.700 20 -1 26.9000 143.200 1 29 995 7 286
1991233N22147 1991 53 WP MM NOT_NAMED 1991-08-24 15:00:00 TS 26.3825 142.526 main 980 967 P_P___________ WP151991 25.7999 142.322 20 -1 26.9651 142.730 1 29 995 8 281
1991233N22147 1991 53 WP MM NOT_NAMED 1991-08-24 18:00:00 TS 26.4500 142.050 main 957 942 O_O___________ jtwc_wp WP151991 25.9000 141.900 20 -1 27.0000 142.200 1 29 995 9 278
1991233N22147 1991 53 WP MM NOT_NAMED 1991-08-24 21:00:00 TS 26.5113 141.564 main 942 923 P_P___________ WP151991 26.0000 141.450 22 -1 27.0225 141.678 1 29 995 9 277
1991233N22147 1991 53 WP MM NOT_NAMED 1991-08-25 00:00:00 TS 26.5500 141.100 main 913 902 O_O___________ jtwc_wp WP151991 26.1000 141.000 25 -1 27.0000 141.200 1 29 995 8 272
1991233N22147 1991 53 WP MM NOT_NAMED 1991-08-25 03:00:00 TS 26.5422 140.714 main 902 887 P_P___________ WP151991 26.1923 140.592 25 -1 26.8922 140.835 1 29 995 7 270
1991233N22147 1991 53 WP MM NOT_NAMED 1991-08-25 06:00:00 TS 26.5500 140.350 main 878 859 O_O___________ jtwc_wp WP151991 26.3000 140.200 25 -1 26.8000 140.500 1 29 995 7 278
1991233N22147 1991 53 WP MM NOT_NAMED 1991-08-25 09:00:00 TS 26.6349 139.954 main 859 831 P_P___________ WP151991 26.4424 139.800 25 -1 26.8274 140.108 1 29 995 7 286
1991233N22147 1991 53 WP MM NOT_NAMED 1991-08-25 12:00:00 TS 26.7500 139.550 main 821 805 O_O___________ jtwc_wp WP151991 26.6000 139.400 25 -1 26.9000 139.700 1 29 995 7 287
1991233N22147 1991 53 WP MM NOT_NAMED 1991-08-25 15:00:00 TS 26.8536 139.154 main 795 780 P_P___________ WP151991 26.7499 139.000 27 -1 26.9573 139.308 1 29 995 7 286
1991233N22147 1991 53 WP MM NOT_NAMED 1991-08-25 18:00:00 TS 26.9500 138.750 main 769 756 O_O___________ jtwc_wp WP151991 26.9000 138.600 30 -1 27.0000 138.900 1 29 995 8 284
1991233N22147 1991 53 WP MM NOT_NAMED 1991-08-25 21:00:00 TS 27.0324 138.332 main 753 731 P_P___________ WP151991 27.0574 138.200 30 -1 27.0074 138.465 1 29 995 8 281
1991233N22147 1991 53 WP MM NOT_NAMED 1991-08-26 00:00:00 TS 27.0889 137.911 1000 tokyo main 731 721 OOO___________ jtwc_wp WP151991 27.2000 137.800 30 -1 27.0000 138.000 2 1000 0 0 0 27.0000 138.000 1 29 995 8 277
1991233N22147 1991 53 WP MM NOT_NAMED 1991-08-26 03:00:00 TS 27.1210 137.459 main 721 712 PPP___________ WP151991 27.2999 137.400 30 -1 27.0052 137.513 2 999 0 0 27.0000 137.493 1 29 995 8 274
1991233N22147 1991 53 WP MM NOT_NAMED 1991-08-26 06:00:00 TS 27.1455 137.000 998 tokyo main 712 687 OOO___________ jtwc_wp WP151991 27.4000 137.000 30 -1 27.0000 137.000 2 998 0 0 0 27.0000 137.000 1 29 995 8 274
1991233N22147 1991 53 WP MM NOT_NAMED 1991-08-26 09:00:00 TS 27.1733 136.549 main 680 660 PPP___________ WP151991 27.5498 136.608 30 -1 26.9851 136.462 2 998 0 0 26.9848 136.577 1 29 995 8 276
1991233N22147 1991 53 WP MM NOT_NAMED 1991-08-26 12:00:00 TS 27.2333 136.133 998 tokyo main 653 625 OOO___________ jtwc_wp WP151991 27.7000 136.200 30 -1 27.0000 136.000 2 998 0 0 0 27.0000 136.200 1 29 995 7 282
1991233N22147 1991 53 WP MM NOT_NAMED 1991-08-26 15:00:00 TS 27.3231 135.783 main 625 597 PPP___________ WP151991 27.8150 135.750 30 -1 27.0770 135.742 2 998 0 0 27.0772 135.857 1 29 995 7 288
1991233N22147 1991 53 WP MM NOT_NAMED 1991-08-26 18:00:00 TS 27.4333 135.433 998 tokyo main 590 557 OOO___________ jtwc_wp WP151991 27.9000 135.300 30 -1 27.2000 135.500 2 998 0 0 0 27.2000 135.500 1 29 995 7 288
1991233N22147 1991 53 WP MM NOT_NAMED 1991-08-26 21:00:00 TS 27.5399 135.022 main 557 515 PPP___________ WP151991 27.9497 134.907 30 -1 27.3274 135.095 2 998 0 0 27.3425 135.065 1 29 995 8 287
1991233N22147 1991 53 WP MM NOT_NAMED 1991-08-27 00:00:00 TS 27.6667 134.567 998 tokyo main 515 478 OOO___________ jtwc_wp WP151991 28.0000 134.500 30 -1 27.5000 134.600 2 998 0 0 0 27.5000 134.600 1 29 995 9 288
1991233N22147 1991 53 WP MM NOT_NAMED 1991-08-27 03:00:00 TS 27.8183 134.072 main 478 434 PPP___________ WP151991 28.0701 134.000 30 -1 27.7501 134.050 2 999 0 0 27.6347 134.165 1 29 995 9 291
1991233N22147 1991 53 WP MM NOT_NAMED 1991-08-27 06:00:00 TS 28.0000 133.567 1000 tokyo main 434 389 OOO___________ jtwc_wp WP151991 28.2000 133.500 30 -1 28.0000 133.500 2 1000 0 0 0 27.8000 133.700 1 29 995 10 294
1991233N22147 1991 53 WP MM NOT_NAMED 1991-08-27 09:00:00 TS 28.2015 133.087 main 389 348 PPP___________ WP151991 28.4197 133.092 30 -1 28.1498 133.027 2 1000 0 0 28.0352 133.143 1 33 995 9 298
1991233N22147 1991 53 WP MM NOT_NAMED 1991-08-27 12:00:00 TS 28.4308 132.654 1000 tokyo main 348 299 OOOO__________ jtwc_wp WP151991 28.7000 132.700 30 -1 28.3000 132.600 2 1000 0 0 0 28.3000 132.600 2 38 995 28.4000 132.900 TD 25 992 9 303
1991233N22147 1991 53 WP MM NOT_NAMED 1991-08-27 15:00:00 TS 28.6816 132.254 main 299 246 PPPP__________ WP151991 28.9848 132.272 30 -1 28.4849 132.213 2 999 0 0 28.5120 132.192 2 38 995 28.8076 132.426 TD 27 990 9 309
1991233N22147 1991 53 WP MM NOT_NAMED 1991-08-27 18:00:00 TS 29.0133 131.820 998 tokyo main 246 187 OOOO__________ jtwc_wp WP151991 29.3000 131.800 30 -1 28.8000 131.800 2 998 0 0 0 28.8000 131.800 2 38 995 29.2000 131.900 TD 30 988 11 313
1991233N22147 1991 53 WP MM NOT_NAMED 1991-08-27 21:00:00 TS 29.4500 131.297 35 996 tokyo main 187 134 POPP__________ WP151991 29.6424 131.265 30 -1 29.3000 131.300 3 35 996 0 9 30 30 0 29.2924 131.323 2 38 995 29.5651 131.300 TD 30 988 13 310
1991233N22147 1991 53 WP MM NOT_NAMED 1991-08-28 00:00:00 TS 29.8250 130.725 35 996 tokyo main 133 101 OOOO__________ jtwc_wp WP151991 30.0000 130.700 30 -1 29.6000 130.700 3 35 996 0 9 30 30 0 29.8000 130.800 2 38 995 29.9000 130.700 TD 30 988 12 306
1991233N22147 1991 53 WP MM NOT_NAMED 1991-08-28 03:00:00 TS 30.1801 130.148 35 996 tokyo main 106 91 POPP__________ WP151991 30.3351 130.120 30 -1 30.1000 130.100 3 35 996 0 9 30 30 0 30.1003 130.212 2 38 995 30.1849 130.162 TD 27 989 11 307
1991233N22147 1991 53 WP MM NOT_NAMED 1991-08-28 06:00:00 TS 30.5000 129.675 35 994 tokyo main 91 83 OOOO__________ jtwc_wp WP151991 30.7000 129.600 30 -1 30.4000 129.700 3 35 994 0 9 30 30 0 30.4000 129.700 2 38 995 30.5000 129.700 TD 25 990 10 316
1991233N22147 1991 53 WP MM NOT_NAMED 1991-08-28 09:00:00 TS 30.9273 129.300 35 992 tokyo main 91 88 POPP__________ WP151991 31.1348 129.190 30 -1 30.8000 129.300 3 35 992 0 9 30 30 0 30.8621 129.404 2 38 995 30.9124 129.305 TD 25 991 11 326
1991233N22147 1991 53 WP MM NOT_NAMED 1991-08-28 12:00:00 TS 31.4000 128.975 35 992 tokyo main 114 114 OOOO__________ jtwc_wp WP151991 31.6000 128.900 30 -1 31.2000 128.800 3 35 992 0 9 30 30 0 31.4000 129.200 2 38 995 31.4000 129.000 TD 25 992 11 335
1991233N22147 1991 53 WP MM NOT_NAMED 1991-08-28 15:00:00 TS 31.9487 128.738 35 994 tokyo main 122 103 POPP__________ WP151991 32.0424 128.690 30 -1 31.8000 128.600 3 35 994 0 9 30 30 0 31.9801 128.913 2 33 996 31.9724 128.748 TD 25 992 11 343
1991233N22147 1991 53 WP MM NOT_NAMED 1991-08-28 18:00:00 TS 32.4467 128.600 35 994 tokyo main 105 93 OOOO__________ jtwc_wp WP151991 32.5000 128.600 30 -1 32.3000 128.500 3 35 994 0 9 30 30 0 32.5000 128.700 1 29 998 32.5000 128.600 TD 25 992 9 353
1991233N22147 1991 53 WP MM NOT_NAMED 1991-08-28 21:00:00 TS 32.8321 128.604 35 994 tokyo main 93 83 POPP__________ WP151991 32.9774 128.583 27 -1 32.7000 128.600 3 35 994 0 9 30 30 0 32.8074 128.647 1 29 998 32.8550 128.567 TD 25 992 8 6
1991233N22147 1991 53 WP MM NOT_NAMED 1991-08-29 00:00:00 TS 33.2333 128.692 35 996 tokyo main 83 77 OOOO__________ jtwc_wp WP151991 33.5000 128.700 25 -1 33.1000 128.700 3 35 996 0 9 30 30 0 33.1000 128.700 1 29 998 33.1000 128.600 TD 25 992 10 13
1991233N22147 1991 53 WP MM NOT_NAMED 1991-08-29 03:00:00 TS 33.8234 128.886 998 tokyo main 85 78 POP___________ WP151991 34.0847 128.918 25 -1 33.7000 128.900 2 998 0 0 0 33.5476 128.792 1 26 999 TD 11 17
1991233N22147 1991 53 WP MM NOT_NAMED 1991-08-29 06:00:00 TS 34.3250 129.100 998 tokyo main 78 49 OOO___________ jtwc_wp WP151991 34.7000 129.300 25 -1 34.1000 129.000 2 998 0 0 0 34.1000 128.900 1 23 1000 12 29
1991233N22147 1991 53 WP MM NOT_NAMED 1991-08-29 09:00:00 TS 34.9097 129.624 main 49 49 PP____________ WP151991 35.3059 129.850 25 -1 34.7116 129.510 2 999 0 0 1 16 39
1991233N22147 1991 53 WP MM NOT_NAMED 1991-08-29 12:00:00 TS 35.5800 130.340 1000 tokyo main 75 75 OO____________ jtwc_wp WP151991 35.9000 130.500 25 -1 35.5000 130.300 2 1000 0 0 0 19 39
1991233N22147 1991 53 WP MM NOT_NAMED 1991-08-29 15:00:00 TS 36.3920 131.098 main 141 141 _P____________ WP151991 -1 36.3920 131.098 2 1001 0 0 22 38
1991233N22147 1991 53 WP MM NOT_NAMED 1991-08-29 18:00:00 TS 37.3000 132.000 1002 tokyo main 216 212 _O____________ -1 37.3000 132.000 2 1002 0 0 0 23 41
1991233N22147 1991 53 WP MM NOT_NAMED 1991-08-29 21:00:00 TS 38.0947 132.979 main 289 289 _P____________ -1 38.0947 132.979 2 1002 0 0 22 46
1991233N22147 1991 53 WP MM NOT_NAMED 1991-08-30 00:00:00 TS 38.8000 134.000 1002 tokyo main 289 271 _O____________ -1 38.8000 134.000 2 1002 0 0 0 21 50
1991233N22147 1991 53 WP MM NOT_NAMED 1991-08-30 03:00:00 TS 39.4756 135.074 main 276 271 _P____________ -1 39.4756 135.074 2 1002 0 0 20 52
1991233N22147 1991 53 WP MM NOT_NAMED 1991-08-30 06:00:00 ET 40.0000 136.000 1002 tokyo main 297 266 _O____________ -1 40.0000 136.000 6 1002 0 0 0 14 54
1991233N22147 1991 53 WP MM NOT_NAMED 1991-08-30 09:00:00 ET 40.3009 136.578 main 266 238 _P____________ -1 40.3009 136.578 6 1002 0 0 9 57
1991233N22147 1991 53 WP MM NOT_NAMED 1991-08-30 12:00:00 ET 40.5000 137.000 1002 tokyo main 238 202 _O____________ -1 40.5000 137.000 6 1002 0 0 0 9 55
1991233N22147 1991 53 WP MM NOT_NAMED 1991-08-30 15:00:00 ET 40.7873 137.500 main 202 165 _P____________ -1 40.7873 137.500 6 1002 0 0 9 57
1991233N22147 1991 53 WP MM NOT_NAMED 1991-08-30 18:00:00 ET 41.0000 138.000 1002 tokyo main 165 129 _O____________ -1 41.0000 138.000 6 1002 0 0 0 8 71
1991233N22147 1991 53 WP MM NOT_NAMED 1991-08-30 21:00:00 ET 41.0504 138.501 main 129 87 _P____________ -1 41.0504 138.501 6 1002 0 0 8 90
1991233N22147 1991 53 WP MM NOT_NAMED 1991-08-31 00:00:00 ET 41.0000 139.000 1002 tokyo main 87 _O____________ -1 41.0000 139.000 6 1002 0 0 0 8 98

Digital Typhoon Data and Search

About IBTrACS Database

This database is a web-friendly format of International Best Track Archive for Climate Stewardship (IBTrACS), a global best track data archive curated by NOAA dating back to 1842.

Updated: 2021-12-03